Terminal Aerodrome Forecast
Issued by NWS

Home | Current Version | Previous Version | Text Only | Print | Product List | Glossary On
Versions: 1 2 3 4 5 6 7 8 9 10 11 12 13 14 15 16 17 18 19 20
612
FTUS45 KPIH 212322
TAFSUN
TAF
KSUN 212322Z 2200/2306 13006KT P6SM SCT040 OVC080
     FM220400 VRB05KT 6SM -RA SCT015 BKN025 OVC035
     FM220800 32007KT P6SM VCSH SCT025 BKN035 OVC050
     FM221900 12006KT P6SM SCT050 BKN200
     FM230400 31008KT P6SM SCT200
      AMD LTD TO CLD VIS AND WIND 2206/2214=

USA.gov is the U.S. government's official web portal to all federal, state and local government web resources and services.